sensor_id;sensor_type;location;lat;lon;timestamp;P1;durP1;ratioP1;P2;durP2;ratioP2
68108;SDS011;54893;49.864;19.084;2023-07-20T00:01:11;10.47;;;6.10;;
68108;SDS011;54893;49.864;19.084;2023-07-20T00:06:11;13.30;;;6.27;;
68108;SDS011;54893;49.864;19.084;2023-07-20T00:11:12;10.05;;;5.57;;
68108;SDS011;54893;49.864;19.084;2023-07-20T00:16:13;11.45;;;5.93;;
68108;SDS011;54893;49.864;19.084;2023-07-20T00:21:13;11.82;;;6.20;;
68108;SDS011;54893;49.864;19.084;2023-07-20T00:26:14;12.98;;;6.93;;
68108;SDS011;54893;49.864;19.084;2023-07-20T00:31:14;13.68;;;8.90;;
68108;SDS011;54893;49.864;19.084;2023-07-20T00:36:14;12.03;;;6.97;;
68108;SDS011;54893;49.864;19.084;2023-07-20T00:41:15;11.97;;;6.23;;
68108;SDS011;54893;49.864;19.084;2023-07-20T00:46:15;12.27;;;5.50;;
68108;SDS011;54893;49.864;19.084;2023-07-20T00:51:15;11.17;;;5.53;;
68108;SDS011;54893;49.864;19.084;2023-07-20T00:56:16;11.30;;;4.73;;
68108;SDS011;54893;49.864;19.084;2023-07-20T01:01:16;8.67;;;4.30;;
68108;SDS011;54893;49.864;19.084;2023-07-20T01:06:29;9.07;;;4.03;;
68108;SDS011;54893;49.864;19.084;2023-07-20T01:16:59;9.43;;;4.03;;
68108;SDS011;54893;49.864;19.084;2023-07-20T01:22:09;11.67;;;4.60;;
68108;SDS011;54893;49.864;19.084;2023-07-20T01:27:36;9.05;;;5.10;;
68108;SDS011;54893;49.864;19.084;2023-07-20T01:32:45;9.30;;;4.70;;
68108;SDS011;54893;49.864;19.084;2023-07-20T01:37:47;11.53;;;5.00;;
68108;SDS011;54893;49.864;19.084;2023-07-20T01:42:48;8.05;;;4.47;;
68108;SDS011;54893;49.864;19.084;2023-07-20T01:47:48;8.10;;;4.77;;
68108;SDS011;54893;49.864;19.084;2023-07-20T01:52:48;13.27;;;5.40;;
68108;SDS011;54893;49.864;19.084;2023-07-20T01:57:49;11.07;;;5.53;;
68108;SDS011;54893;49.864;19.084;2023-07-20T02:02:49;9.70;;;5.18;;
68108;SDS011;54893;49.864;19.084;2023-07-20T02:07:50;10.43;;;4.60;;
68108;SDS011;54893;49.864;19.084;2023-07-20T02:12:50;8.57;;;4.77;;
68108;SDS011;54893;49.864;19.084;2023-07-20T02:17:51;10.97;;;5.00;;
68108;SDS011;54893;49.864;19.084;2023-07-20T02:22:51;9.63;;;4.47;;
68108;SDS011;54893;49.864;19.084;2023-07-20T02:27:51;10.00;;;4.73;;
68108;SDS011;54893;49.864;19.084;2023-07-20T02:32:52;8.80;;;4.20;;
68108;SDS011;54893;49.864;19.084;2023-07-20T02:37:52;8.70;;;3.90;;
68108;SDS011;54893;49.864;19.084;2023-07-20T02:42:53;8.77;;;3.70;;
68108;SDS011;54893;49.864;19.084;2023-07-20T02:47:53;6.60;;;3.70;;
68108;SDS011;54893;49.864;19.084;2023-07-20T02:52:54;7.63;;;4.47;;
68108;SDS011;54893;49.864;19.084;2023-07-20T02:57:54;6.03;;;3.30;;
68108;SDS011;54893;49.864;19.084;2023-07-20T03:02:54;6.77;;;3.10;;
68108;SDS011;54893;49.864;19.084;2023-07-20T03:07:55;6.53;;;2.97;;
68108;SDS011;54893;49.864;19.084;2023-07-20T03:12:56;6.57;;;2.90;;
68108;SDS011;54893;49.864;19.084;2023-07-20T03:17:56;8.10;;;3.30;;
68108;SDS011;54893;49.864;19.084;2023-07-20T03:22:58;5.70;;;2.67;;
68108;SDS011;54893;49.864;19.084;2023-07-20T03:27:58;8.05;;;3.03;;
68108;SDS011;54893;49.864;19.084;2023-07-20T03:32:59;5.17;;;2.80;;
68108;SDS011;54893;49.864;19.084;2023-07-20T03:37:59;7.80;;;3.00;;
68108;SDS011;54893;49.864;19.084;2023-07-20T03:42:59;5.73;;;3.07;;
68108;SDS011;54893;49.864;19.084;2023-07-20T03:48:00;7.30;;;3.43;;
68108;SDS011;54893;49.864;19.084;2023-07-20T03:53:00;6.20;;;3.10;;
68108;SDS011;54893;49.864;19.084;2023-07-20T03:58:00;6.50;;;3.20;;
68108;SDS011;54893;49.864;19.084;2023-07-20T04:03:01;5.70;;;2.65;;
68108;SDS011;54893;49.864;19.084;2023-07-20T04:08:02;5.97;;;2.67;;
68108;SDS011;54893;49.864;19.084;2023-07-20T04:13:02;5.33;;;3.00;;
68108;SDS011;54893;49.864;19.084;2023-07-20T04:18:03;6.97;;;3.10;;
68108;SDS011;54893;49.864;19.084;2023-07-20T04:23:04;6.72;;;3.00;;
68108;SDS011;54893;49.864;19.084;2023-07-20T04:28:05;6.53;;;3.17;;
68108;SDS011;54893;49.864;19.084;2023-07-20T04:33:08;6.00;;;2.95;;
68108;SDS011;54893;49.864;19.084;2023-07-20T04:38:09;6.57;;;3.10;;
68108;SDS011;54893;49.864;19.084;2023-07-20T04:43:09;8.82;;;2.95;;
68108;SDS011;54893;49.864;19.084;2023-07-20T04:48:10;8.38;;;3.10;;
68108;SDS011;54893;49.864;19.084;2023-07-20T04:53:12;6.80;;;3.10;;
68108;SDS011;54893;49.864;19.084;2023-07-20T04:58:12;6.03;;;2.92;;
68108;SDS011;54893;49.864;19.084;2023-07-20T05:03:13;7.07;;;2.80;;
68108;SDS011;54893;49.864;19.084;2023-07-20T05:08:13;7.87;;;3.00;;
68108;SDS011;54893;49.864;19.084;2023-07-20T05:13:13;6.65;;;2.80;;
68108;SDS011;54893;49.864;19.084;2023-07-20T05:18:14;6.33;;;2.80;;
68108;SDS011;54893;49.864;19.084;2023-07-20T05:23:19;7.78;;;3.17;;
68108;SDS011;54893;49.864;19.084;2023-07-20T05:28:20;5.87;;;2.90;;
68108;SDS011;54893;49.864;19.084;2023-07-20T05:33:20;7.88;;;3.10;;
68108;SDS011;54893;49.864;19.084;2023-07-20T05:38:21;6.07;;;3.30;;
68108;SDS011;54893;49.864;19.084;2023-07-20T05:43:22;12.17;;;3.23;;
68108;SDS011;54893;49.864;19.084;2023-07-20T05:48:23;5.65;;;2.88;;
68108;SDS011;54893;49.864;19.084;2023-07-20T05:53:24;7.38;;;3.25;;
68108;SDS011;54893;49.864;19.084;2023-07-20T05:58:24;6.90;;;3.00;;
68108;SDS011;54893;49.864;19.084;2023-07-20T06:03:24;6.57;;;3.20;;
68108;SDS011;54893;49.864;19.084;2023-07-20T06:08:25;7.83;;;3.30;;
68108;SDS011;54893;49.864;19.084;2023-07-20T06:13:25;6.55;;;3.20;;
68108;SDS011;54893;49.864;19.084;2023-07-20T06:18:26;7.70;;;3.33;;
68108;SDS011;54893;49.864;19.084;2023-07-20T06:23:26;9.60;;;3.30;;
68108;SDS011;54893;49.864;19.084;2023-07-20T06:28:26;9.13;;;3.50;;
68108;SDS011;54893;49.864;19.084;2023-07-20T06:33:27;6.90;;;3.00;;
68108;SDS011;54893;49.864;19.084;2023-07-20T06:38:27;7.55;;;3.38;;
68108;SDS011;54893;49.864;19.084;2023-07-20T06:43:29;6.87;;;3.23;;
68108;SDS011;54893;49.864;19.084;2023-07-20T06:48:29;6.53;;;2.80;;
68108;SDS011;54893;49.864;19.084;2023-07-20T06:53:30;5.95;;;2.42;;
68108;SDS011;54893;49.864;19.084;2023-07-20T06:58:30;5.10;;;2.75;;
68108;SDS011;54893;49.864;19.084;2023-07-20T07:03:31;5.13;;;2.60;;
68108;SDS011;54893;49.864;19.084;2023-07-20T07:08:31;4.95;;;2.20;;
68108;SDS011;54893;49.864;19.084;2023-07-20T07:13:31;5.57;;;1.97;;
68108;SDS011;54893;49.864;19.084;2023-07-20T07:18:32;4.53;;;2.10;;
68108;SDS011;54893;49.864;19.084;2023-07-20T07:23:32;4.67;;;2.07;;
68108;SDS011;54893;49.864;19.084;2023-07-20T07:28:32;4.20;;;2.03;;
68108;SDS011;54893;49.864;19.084;2023-07-20T07:33:33;4.70;;;2.00;;
68108;SDS011;54893;49.864;19.084;2023-07-20T07:38:34;6.05;;;2.30;;
68108;SDS011;54893;49.864;19.084;2023-07-20T07:43:34;4.78;;;2.38;;
68108;SDS011;54893;49.864;19.084;2023-07-20T07:48:35;5.13;;;2.30;;
68108;SDS011;54893;49.864;19.084;2023-07-20T07:53:35;6.10;;;2.50;;
68108;SDS011;54893;49.864;19.084;2023-07-20T07:58:36;4.40;;;2.17;;
68108;SDS011;54893;49.864;19.084;2023-07-20T08:03:37;5.35;;;2.20;;
68108;SDS011;54893;49.864;19.084;2023-07-20T08:08:38;7.83;;;2.67;;
68108;SDS011;54893;49.864;19.084;2023-07-20T08:13:38;5.37;;;2.00;;
68108;SDS011;54893;49.864;19.084;2023-07-20T08:18:38;6.73;;;2.10;;
68108;SDS011;54893;49.864;19.084;2023-07-20T08:23:38;6.95;;;2.40;;
68108;SDS011;54893;49.864;19.084;2023-07-20T08:28:39;4.27;;;2.20;;
68108;SDS011;54893;49.864;19.084;2023-07-20T08:33:39;5.28;;;2.35;;
68108;SDS011;54893;49.864;19.084;2023-07-20T08:38:39;3.97;;;2.30;;
68108;SDS011;54893;49.864;19.084;2023-07-20T08:43:40;5.27;;;2.30;;
68108;SDS011;54893;49.864;19.084;2023-07-20T08:48:43;4.95;;;2.50;;
68108;SDS011;54893;49.864;19.084;2023-07-20T08:53:44;4.47;;;2.30;;
68108;SDS011;54893;49.864;19.084;2023-07-20T08:58:45;5.43;;;2.90;;
68108;SDS011;54893;49.864;19.084;2023-07-20T09:03:46;4.77;;;2.20;;
68108;SDS011;54893;49.864;19.084;2023-07-20T09:08:46;8.33;;;2.87;;
68108;SDS011;54893;49.864;19.084;2023-07-20T09:13:47;6.38;;;2.80;;
68108;SDS011;54893;49.864;19.084;2023-07-20T09:18:47;4.43;;;2.17;;
68108;SDS011;54893;49.864;19.084;2023-07-20T09:23:47;4.60;;;2.35;;
68108;SDS011;54893;49.864;19.084;2023-07-20T09:28:49;4.53;;;2.27;;
68108;SDS011;54893;49.864;19.084;2023-07-20T09:33:52;4.85;;;2.72;;
68108;SDS011;54893;49.864;19.084;2023-07-20T09:38:53;5.43;;;2.70;;
68108;SDS011;54893;49.864;19.084;2023-07-20T09:43:54;5.70;;;2.20;;
68108;SDS011;54893;49.864;19.084;2023-07-20T09:48:54;6.63;;;2.70;;
68108;SDS011;54893;49.864;19.084;2023-07-20T09:53:55;4.93;;;2.90;;
68108;SDS011;54893;49.864;19.084;2023-07-20T09:58:56;5.57;;;2.60;;
68108;SDS011;54893;49.864;19.084;2023-07-20T10:03:58;5.72;;;2.70;;
68108;SDS011;54893;49.864;19.084;2023-07-20T10:09:02;5.78;;;2.70;;
68108;SDS011;54893;49.864;19.084;2023-07-20T10:14:07;5.25;;;2.80;;
68108;SDS011;54893;49.864;19.084;2023-07-20T10:19:11;4.85;;;2.80;;
68108;SDS011;54893;49.864;19.084;2023-07-20T10:24:17;4.77;;;2.70;;
68108;SDS011;54893;49.864;19.084;2023-07-20T10:29:18;6.00;;;3.13;;
68108;SDS011;54893;49.864;19.084;2023-07-20T10:34:19;8.30;;;2.83;;
68108;SDS011;54893;49.864;19.084;2023-07-20T10:39:30;4.37;;;2.70;;
68108;SDS011;54893;49.864;19.084;2023-07-20T10:44:31;5.25;;;2.80;;
68108;SDS011;54893;49.864;19.084;2023-07-20T10:49:35;6.03;;;2.90;;
68108;SDS011;54893;49.864;19.084;2023-07-20T10:54:55;6.35;;;3.05;;
68108;SDS011;54893;49.864;19.084;2023-07-20T11:00:11;4.87;;;2.77;;
68108;SDS011;54893;49.864;19.084;2023-07-20T11:10:32;4.97;;;2.80;;
68108;SDS011;54893;49.864;19.084;2023-07-20T11:15:53;5.23;;;3.20;;
68108;SDS011;54893;49.864;19.084;2023-07-20T11:21:03;7.33;;;3.13;;
68108;SDS011;54893;49.864;19.084;2023-07-20T11:26:07;6.43;;;3.00;;
68108;SDS011;54893;49.864;19.084;2023-07-20T11:31:08;5.10;;;3.20;;
68108;SDS011;54893;49.864;19.084;2023-07-20T11:36:09;5.60;;;3.33;;
68108;SDS011;54893;49.864;19.084;2023-07-20T11:41:09;7.53;;;3.50;;
68108;SDS011;54893;49.864;19.084;2023-07-20T11:46:10;6.93;;;3.43;;
68108;SDS011;54893;49.864;19.084;2023-07-20T11:51:15;6.57;;;3.47;;
68108;SDS011;54893;49.864;19.084;2023-07-20T11:56:16;6.50;;;4.30;;
68108;SDS011;54893;49.864;19.084;2023-07-20T12:01:17;5.13;;;3.70;;
68108;SDS011;54893;49.864;19.084;2023-07-20T12:06:17;5.50;;;3.33;;
68108;SDS011;54893;49.864;19.084;2023-07-20T12:11:33;5.30;;;3.53;;
68108;SDS011;54893;49.864;19.084;2023-07-20T12:16:35;7.68;;;3.80;;
68108;SDS011;54893;49.864;19.084;2023-07-20T12:21:37;5.87;;;4.10;;
68108;SDS011;54893;49.864;19.084;2023-07-20T12:26:38;5.78;;;3.83;;
68108;SDS011;54893;49.864;19.084;2023-07-20T12:31:39;7.57;;;3.60;;
68108;SDS011;54893;49.864;19.084;2023-07-20T12:36:39;7.00;;;3.88;;
68108;SDS011;54893;49.864;19.084;2023-07-20T12:41:39;5.00;;;3.30;;
68108;SDS011;54893;49.864;19.084;2023-07-20T12:46:40;6.70;;;3.90;;
68108;SDS011;54893;49.864;19.084;2023-07-20T12:51:40;6.70;;;3.50;;
68108;SDS011;54893;49.864;19.084;2023-07-20T12:56:41;7.27;;;3.10;;
68108;SDS011;54893;49.864;19.084;2023-07-20T13:01:41;7.57;;;3.40;;
68108;SDS011;54893;49.864;19.084;2023-07-20T13:06:42;6.07;;;3.55;;
68108;SDS011;54893;49.864;19.084;2023-07-20T13:11:43;6.20;;;3.37;;
68108;SDS011;54893;49.864;19.084;2023-07-20T13:16:44;6.67;;;3.70;;
68108;SDS011;54893;49.864;19.084;2023-07-20T13:21:44;8.00;;;3.47;;
68108;SDS011;54893;49.864;19.084;2023-07-20T13:26:44;6.05;;;3.00;;
68108;SDS011;54893;49.864;19.084;2023-07-20T13:31:45;5.72;;;3.10;;
68108;SDS011;54893;49.864;19.084;2023-07-20T13:36:46;6.13;;;3.05;;
68108;SDS011;54893;49.864;19.084;2023-07-20T13:41:46;6.78;;;3.13;;
68108;SDS011;54893;49.864;19.084;2023-07-20T13:46:47;5.15;;;2.72;;
68108;SDS011;54893;49.864;19.084;2023-07-20T13:51:48;5.13;;;2.60;;
68108;SDS011;54893;49.864;19.084;2023-07-20T13:56:48;5.00;;;2.70;;
68108;SDS011;54893;49.864;19.084;2023-07-20T14:01:48;4.63;;;2.60;;
68108;SDS011;54893;49.864;19.084;2023-07-20T14:06:49;8.23;;;2.67;;
68108;SDS011;54893;49.864;19.084;2023-07-20T14:11:49;6.03;;;2.80;;
68108;SDS011;54893;49.864;19.084;2023-07-20T14:16:50;4.60;;;2.35;;
68108;SDS011;54893;49.864;19.084;2023-07-20T14:21:50;5.15;;;2.40;;
68108;SDS011;54893;49.864;19.084;2023-07-20T14:26:51;6.90;;;2.80;;
68108;SDS011;54893;49.864;19.084;2023-07-20T14:31:51;5.60;;;2.43;;
68108;SDS011;54893;49.864;19.084;2023-07-20T14:36:52;5.88;;;2.35;;
68108;SDS011;54893;49.864;19.084;2023-07-20T14:41:53;5.75;;;3.72;;
68108;SDS011;54893;49.864;19.084;2023-07-20T14:46:53;8.47;;;4.60;;
68108;SDS011;54893;49.864;19.084;2023-07-20T14:51:54;7.25;;;5.50;;
68108;SDS011;54893;49.864;19.084;2023-07-20T14:56:54;4.83;;;2.93;;
68108;SDS011;54893;49.864;19.084;2023-07-20T15:01:56;6.43;;;4.43;;
68108;SDS011;54893;49.864;19.084;2023-07-20T15:06:56;5.80;;;3.20;;
68108;SDS011;54893;49.864;19.084;2023-07-20T15:11:57;6.53;;;3.70;;
68108;SDS011;54893;49.864;19.084;2023-07-20T15:16:57;5.47;;;3.42;;
68108;SDS011;54893;49.864;19.084;2023-07-20T15:21:57;6.23;;;3.43;;
68108;SDS011;54893;49.864;19.084;2023-07-20T15:26:58;5.15;;;3.30;;
68108;SDS011;54893;49.864;19.084;2023-07-20T15:31:59;8.50;;;3.15;;
68108;SDS011;54893;49.864;19.084;2023-07-20T15:36:59;5.13;;;2.70;;
68108;SDS011;54893;49.864;19.084;2023-07-20T15:41:59;3.65;;;2.17;;
68108;SDS011;54893;49.864;19.084;2023-07-20T15:47:00;5.13;;;2.70;;
68108;SDS011;54893;49.864;19.084;2023-07-20T15:52:01;4.87;;;2.70;;
68108;SDS011;54893;49.864;19.084;2023-07-20T15:57:01;4.23;;;2.23;;
68108;SDS011;54893;49.864;19.084;2023-07-20T16:02:01;3.53;;;1.90;;
68108;SDS011;54893;49.864;19.084;2023-07-20T16:07:04;3.70;;;2.15;;
68108;SDS011;54893;49.864;19.084;2023-07-20T16:12:07;3.43;;;2.20;;
68108;SDS011;54893;49.864;19.084;2023-07-20T16:17:07;4.80;;;2.70;;
68108;SDS011;54893;49.864;19.084;2023-07-20T16:22:07;4.33;;;2.67;;
68108;SDS011;54893;49.864;19.084;2023-07-20T16:27:11;4.13;;;2.17;;
68108;SDS011;54893;49.864;19.084;2023-07-20T16:32:11;5.75;;;2.13;;
68108;SDS011;54893;49.864;19.084;2023-07-20T16:37:12;5.28;;;2.47;;
68108;SDS011;54893;49.864;19.084;2023-07-20T16:42:12;4.43;;;2.50;;
68108;SDS011;54893;49.864;19.084;2023-07-20T16:47:13;5.45;;;2.40;;
68108;SDS011;54893;49.864;19.084;2023-07-20T16:52:14;4.90;;;2.50;;
68108;SDS011;54893;49.864;19.084;2023-07-20T16:57:14;4.50;;;2.30;;
68108;SDS011;54893;49.864;19.084;2023-07-20T17:02:14;4.07;;;2.28;;
68108;SDS011;54893;49.864;19.084;2023-07-20T17:07:15;4.23;;;2.20;;
68108;SDS011;54893;49.864;19.084;2023-07-20T17:12:15;4.43;;;2.47;;
68108;SDS011;54893;49.864;19.084;2023-07-20T17:17:16;3.37;;;1.70;;
68108;SDS011;54893;49.864;19.084;2023-07-20T17:22:16;3.93;;;1.73;;
68108;SDS011;54893;49.864;19.084;2023-07-20T17:27:17;4.37;;;1.90;;
68108;SDS011;54893;49.864;19.084;2023-07-20T17:32:17;4.32;;;1.77;;
68108;SDS011;54893;49.864;19.084;2023-07-20T17:37:17;3.63;;;1.90;;
68108;SDS011;54893;49.864;19.084;2023-07-20T17:42:20;3.50;;;2.03;;
68108;SDS011;54893;49.864;19.084;2023-07-20T17:47:21;5.67;;;2.00;;
68108;SDS011;54893;49.864;19.084;2023-07-20T17:52:21;4.00;;;2.08;;
68108;SDS011;54893;49.864;19.084;2023-07-20T17:57:22;6.27;;;2.77;;
68108;SDS011;54893;49.864;19.084;2023-07-20T18:02:22;6.43;;;2.20;;
68108;SDS011;54893;49.864;19.084;2023-07-20T18:07:25;3.88;;;2.17;;
68108;SDS011;54893;49.864;19.084;2023-07-20T18:12:25;4.00;;;2.27;;
68108;SDS011;54893;49.864;19.084;2023-07-20T18:17:25;4.60;;;2.42;;
68108;SDS011;54893;49.864;19.084;2023-07-20T18:22:26;6.27;;;3.63;;
68108;SDS011;54893;49.864;19.084;2023-07-20T18:27:26;7.53;;;5.30;;
68108;SDS011;54893;49.864;19.084;2023-07-20T18:32:27;6.55;;;3.22;;
68108;SDS011;54893;49.864;19.084;2023-07-20T18:37:28;5.63;;;2.60;;
68108;SDS011;54893;49.864;19.084;2023-07-20T18:42:28;8.37;;;2.67;;
68108;SDS011;54893;49.864;19.084;2023-07-20T18:47:28;4.60;;;2.40;;
68108;SDS011;54893;49.864;19.084;2023-07-20T18:52:29;4.83;;;2.83;;
68108;SDS011;54893;49.864;19.084;2023-07-20T18:57:29;8.03;;;3.40;;
68108;SDS011;54893;49.864;19.084;2023-07-20T19:02:30;7.33;;;4.00;;
68108;SDS011;54893;49.864;19.084;2023-07-20T19:07:31;8.27;;;3.87;;
68108;SDS011;54893;49.864;19.084;2023-07-20T19:12:31;7.90;;;4.10;;
68108;SDS011;54893;49.864;19.084;2023-07-20T19:17:32;8.17;;;3.80;;
68108;SDS011;54893;49.864;19.084;2023-07-20T19:22:32;7.10;;;3.60;;
68108;SDS011;54893;49.864;19.084;2023-07-20T19:27:33;7.40;;;3.90;;
68108;SDS011;54893;49.864;19.084;2023-07-20T19:32:33;7.80;;;3.50;;
68108;SDS011;54893;49.864;19.084;2023-07-20T19:37:35;4.97;;;3.10;;
68108;SDS011;54893;49.864;19.084;2023-07-20T19:42:35;8.68;;;3.80;;
68108;SDS011;54893;49.864;19.084;2023-07-20T19:47:36;6.00;;;3.37;;
68108;SDS011;54893;49.864;19.084;2023-07-20T19:52:36;5.57;;;3.17;;
68108;SDS011;54893;49.864;19.084;2023-07-20T19:57:38;5.60;;;3.20;;
68108;SDS011;54893;49.864;19.084;2023-07-20T20:02:39;6.80;;;3.10;;
68108;SDS011;54893;49.864;19.084;2023-07-20T20:07:39;5.23;;;2.90;;
68108;SDS011;54893;49.864;19.084;2023-07-20T20:12:40;5.10;;;2.90;;
68108;SDS011;54893;49.864;19.084;2023-07-20T20:17:40;6.75;;;2.88;;
68108;SDS011;54893;49.864;19.084;2023-07-20T20:22:42;7.15;;;3.47;;
68108;SDS011;54893;49.864;19.084;2023-07-20T20:27:42;5.90;;;3.40;;
68108;SDS011;54893;49.864;19.084;2023-07-20T20:32:42;8.33;;;3.10;;
68108;SDS011;54893;49.864;19.084;2023-07-20T20:37:43;5.67;;;3.00;;
68108;SDS011;54893;49.864;19.084;2023-07-20T20:42:44;6.57;;;3.03;;
68108;SDS011;54893;49.864;19.084;2023-07-20T20:47:44;8.20;;;2.93;;
68108;SDS011;54893;49.864;19.084;2023-07-20T20:52:46;5.03;;;2.67;;
68108;SDS011;54893;49.864;19.084;2023-07-20T20:57:47;6.72;;;2.80;;
68108;SDS011;54893;49.864;19.084;2023-07-20T21:02:48;5.03;;;2.75;;
68108;SDS011;54893;49.864;19.084;2023-07-20T21:07:49;6.38;;;2.95;;
68108;SDS011;54893;49.864;19.084;2023-07-20T21:12:50;6.40;;;3.10;;
68108;SDS011;54893;49.864;19.084;2023-07-20T21:17:50;5.70;;;3.05;;
68108;SDS011;54893;49.864;19.084;2023-07-20T21:22:51;7.43;;;3.90;;
68108;SDS011;54893;49.864;19.084;2023-07-20T21:27:58;10.02;;;4.63;;
68108;SDS011;54893;49.864;19.084;2023-07-20T21:32:58;7.90;;;4.00;;
68108;SDS011;54893;49.864;19.084;2023-07-20T21:37:59;8.20;;;4.40;;
68108;SDS011;54893;49.864;19.084;2023-07-20T21:42:59;10.07;;;4.18;;
68108;SDS011;54893;49.864;19.084;2023-07-20T21:48:00;6.93;;;4.07;;
68108;SDS011;54893;49.864;19.084;2023-07-20T21:53:00;6.07;;;2.97;;
68108;SDS011;54893;49.864;19.084;2023-07-20T21:58:01;6.25;;;3.25;;
68108;SDS011;54893;49.864;19.084;2023-07-20T22:03:01;5.90;;;3.25;;
68108;SDS011;54893;49.864;19.084;2023-07-20T22:08:02;5.65;;;3.05;;
68108;SDS011;54893;49.864;19.084;2023-07-20T22:13:03;5.93;;;3.30;;
68108;SDS011;54893;49.864;19.084;2023-07-20T22:18:03;6.67;;;3.40;;
68108;SDS011;54893;49.864;19.084;2023-07-20T22:23:05;6.78;;;3.15;;
68108;SDS011;54893;49.864;19.084;2023-07-20T22:28:05;6.37;;;3.50;;
68108;SDS011;54893;49.864;19.084;2023-07-20T22:33:06;7.33;;;3.57;;
68108;SDS011;54893;49.864;19.084;2023-07-20T22:38:06;8.37;;;3.57;;
68108;SDS011;54893;49.864;19.084;2023-07-20T22:43:06;7.57;;;3.17;;
68108;SDS011;54893;49.864;19.084;2023-07-20T22:48:07;6.07;;;2.77;;
68108;SDS011;54893;49.864;19.084;2023-07-20T22:53:07;7.00;;;3.40;;
68108;SDS011;54893;49.864;19.084;2023-07-20T22:58:07;8.67;;;3.97;;
68108;SDS011;54893;49.864;19.084;2023-07-20T23:03:08;7.27;;;4.17;;
68108;SDS011;54893;49.864;19.084;2023-07-20T23:08:08;9.87;;;4.67;;
68108;SDS011;54893;49.864;19.084;2023-07-20T23:13:09;10.93;;;5.40;;
68108;SDS011;54893;49.864;19.084;2023-07-20T23:18:09;8.87;;;5.03;;
68108;SDS011;54893;49.864;19.084;2023-07-20T23:23:11;9.38;;;5.40;;
68108;SDS011;54893;49.864;19.084;2023-07-20T23:28:11;11.87;;;5.70;;
68108;SDS011;54893;49.864;19.084;2023-07-20T23:33:11;16.60;;;5.73;;
68108;SDS011;54893;49.864;19.084;2023-07-20T23:38:12;10.07;;;5.50;;
68108;SDS011;54893;49.864;19.084;2023-07-20T23:43:13;10.32;;;4.85;;
68108;SDS011;54893;49.864;19.084;2023-07-20T23:48:13;8.80;;;5.20;;
68108;SDS011;54893;49.864;19.084;2023-07-20T23:53:13;10.07;;;4.83;;
68108;SDS011;54893;49.864;19.084;2023-07-20T23:58:14;8.03;;;4.33;;
